Bu Sidra — V7CH3 — position and weather

sailwx.info

Track history (hours):
 
Tides and Currents Weather Stations Pressure Air Temp Water Temp Dewpoint Dewpoint Depression Visibility Wind Speed Wind Dir Waves Ship Positions

Bu Sidra

Last reported at 2017-Sep-20 21:01 UTC. Time now 2017-Sep-20 23:47 UTC.
Position N 05°38' E 000°01'.

Length 225 m; draft 8.6 m.

Type: Ship (hazmat cat A). MMSI: 538005258.

Date/timePositionNaut miles runAvg speedWind from/ knotsBaromVisibWave heightAir tempDewpointWater temp
2017-Sep-20 21:01N 05°38' E 000°01'0 0.0
2017-Sep-20 20:30N 05°38' E 000°01'0 0.0
2017-Sep-20 20:01N 05°38' E 000°01'0 0.0
2017-Sep-20 19:31N 05°38' E 000°01'0 0.0
2017-Sep-20 19:00N 05°38' E 000°01'0 0.0
2017-Sep-20 18:30N 05°38' E 000°01'0 0.0
2017-Sep-20 18:00N 05°38' E 000°01'0 0.0
2017-Sep-20 17:30N 05°38' E 000°01'0 0.0
2017-Sep-20 17:00N 05°38' E 000°01'0 0.0
2017-Sep-20 16:31N 05°38' E 000°01'0 0.0
2017-Sep-20 16:00N 05°38' E 000°01'0 0.0
2017-Sep-20 15:31N 05°38' E 000°01'0 0.0
2017-Sep-20 15:00N 05°38' E 000°01'0 0.0
2017-Sep-20 14:01N 05°38' E 000°01'0 0.0
2017-Sep-20 13:30N 05°38' E 000°01'0 0.0
2017-Sep-20 13:00N 05°38' E 000°01'0 0.0
2017-Sep-20 12:31N 05°38' E 000°01'0 0.0
2017-Sep-20 12:00N 05°38' E 000°01'0 0.0
2017-Sep-20 11:31N 05°38' E 000°01'0 0.0
2017-Sep-20 11:00N 05°38' E 000°01'0 0.0
2017-Sep-20 10:30N 05°38' E 000°01'0 0.0
2017-Sep-20 10:00N 05°38' E 000°01'0 0.0
2017-Sep-20 09:30N 05°38' E 000°01'0 0.0
2017-Sep-20 09:01N 05°38' E 000°01'0 0.0
2017-Sep-20 08:31N 05°38' E 000°01'0 0.0
2017-Sep-20 08:00N 05°38' E 000°01'0 0.0
2017-Sep-20 07:31N 05°38' E 000°01'0 0.0
2017-Sep-20 07:00N 05°38' E 000°01'1 2.2
2017-Sep-20 06:31N 05°38' E 000°02'1 2.2
2017-Sep-20 06:01N 05°38' E 000°03'1 1.5
2017-Sep-20 05:31N 05°38' E 000°02'0 0.1
2017-Sep-20 05:00N 05°38' E 000°03'2 3.5
2017-Sep-20 04:30N 05°36' E 000°03'3 6.8
2017-Sep-20 04:01N 05°34' E 000°06'510.9
2017-Sep-20 03:31N 05°32' E 000°11'612.0
2017-Sep-20 03:00N 05°32' E 000°17'612.0
2017-Sep-20 02:31N 05°32' E 000°23'612.0
2017-Sep-20 02:00N 05°32' E 000°29'55 1.1
2017-Sep-17 22:55N 06°02' E 001°15'  
2017-Sep-14 20:24N 06°02' E 001°15'0 0.0
2017-Sep-14 01:15N 06°02' E 001°15'0 0.0
2017-Sep-14 00:48N 06°02' E 001°15'0 0.0
2017-Sep-14 00:30N 06°02' E 001°15'0 0.1
2017-Sep-13 23:54N 06°02' E 001°15'0 0.0
2017-Sep-13 23:27N 06°02' E 001°15'0 0.0
2017-Sep-13 22:39N 06°02' E 001°15'0 0.2
2017-Sep-13 22:24N 06°02' E 001°15'0 0.1
2017-Sep-13 21:57N 06°02' E 001°15'0 0.0
2017-Sep-13 21:03N 06°02' E 001°15'0 0.2
2017-Sep-13 21:00N 06°02' E 001°15'0 0.0
2017-Sep-13 20:15N 06°02' E 001°15'0 0.0
2017-Sep-13 19:57N 06°02' E 001°15'0 0.0
2017-Sep-12 23:03N 06°02' E 001°15'0 0.1
2017-Sep-12 22:51N 06°02' E 001°15'0 0.0
2017-Sep-12 22:30N 06°02' E 001°15'  
Track history (hours):
 
Tides and Currents Weather Stations Pressure Air Temp Water Temp Dewpoint Dewpoint Depression Visibility Wind Speed Wind Dir Waves Ship Positions

Bu Sidra

Last reported at 2017-Sep-20 21:01 UTC. Time now 2017-Sep-20 23:47 UTC.
Position N 05°38' E 000°01'.

Length 225 m; draft 8.6 m.

Type: Ship (hazmat cat A). MMSI: 538005258.

Date/timePositionNaut miles runAvg speedWind from/ knotsBaromVisibWave heightAir tempDewpointWater temp
2017-Sep-20 21:01N 05°38' E 000°01'0 0.0
2017-Sep-20 20:30N 05°38' E 000°01'0 0.0
2017-Sep-20 20:01N 05°38' E 000°01'0 0.0
2017-Sep-20 19:31N 05°38' E 000°01'0 0.0
2017-Sep-20 19:00N 05°38' E 000°01'0 0.0
2017-Sep-20 18:30N 05°38' E 000°01'0 0.0
2017-Sep-20 18:00N 05°38' E 000°01'0 0.0
2017-Sep-20 17:30N 05°38' E 000°01'0 0.0
2017-Sep-20 17:00N 05°38' E 000°01'0 0.0
2017-Sep-20 16:31N 05°38' E 000°01'0 0.0
2017-Sep-20 16:00N 05°38' E 000°01'0 0.0
2017-Sep-20 15:31N 05°38' E 000°01'0 0.0
2017-Sep-20 15:00N 05°38' E 000°01'0 0.0
2017-Sep-20 14:01N 05°38' E 000°01'0 0.0
2017-Sep-20 13:30N 05°38' E 000°01'0 0.0
2017-Sep-20 13:00N 05°38' E 000°01'0 0.0
2017-Sep-20 12:31N 05°38' E 000°01'0 0.0
2017-Sep-20 12:00N 05°38' E 000°01'0 0.0
2017-Sep-20 11:31N 05°38' E 000°01'0 0.0
2017-Sep-20 11:00N 05°38' E 000°01'0 0.0
2017-Sep-20 10:30N 05°38' E 000°01'0 0.0
2017-Sep-20 10:00N 05°38' E 000°01'0 0.0
2017-Sep-20 09:30N 05°38' E 000°01'0 0.0
2017-Sep-20 09:01N 05°38' E 000°01'0 0.0
2017-Sep-20 08:31N 05°38' E 000°01'0 0.0
2017-Sep-20 08:00N 05°38' E 000°01'0 0.0
2017-Sep-20 07:31N 05°38' E 000°01'0 0.0
2017-Sep-20 07:00N 05°38' E 000°01'1 2.2
2017-Sep-20 06:31N 05°38' E 000°02'1 2.2
2017-Sep-20 06:01N 05°38' E 000°03'1 1.5
2017-Sep-20 05:31N 05°38' E 000°02'0 0.1
2017-Sep-20 05:00N 05°38' E 000°03'2 3.5
2017-Sep-20 04:30N 05°36' E 000°03'3 6.8
2017-Sep-20 04:01N 05°34' E 000°06'510.9
2017-Sep-20 03:31N 05°32' E 000°11'612.0
2017-Sep-20 03:00N 05°32' E 000°17'612.0
2017-Sep-20 02:31N 05°32' E 000°23'612.0
2017-Sep-20 02:00N 05°32' E 000°29'55 1.1
2017-Sep-17 22:55N 06°02' E 001°15'  
2017-Sep-14 20:24N 06°02' E 001°15'0 0.0
2017-Sep-14 01:15N 06°02' E 001°15'0 0.0
2017-Sep-14 00:48N 06°02' E 001°15'0 0.0
2017-Sep-14 00:30N 06°02' E 001°15'0 0.1
2017-Sep-13 23:54N 06°02' E 001°15'0 0.0
2017-Sep-13 23:27N 06°02' E 001°15'0 0.0
2017-Sep-13 22:39N 06°02' E 001°15'0 0.2
2017-Sep-13 22:24N 06°02' E 001°15'0 0.1
2017-Sep-13 21:57N 06°02' E 001°15'0 0.0
2017-Sep-13 21:03N 06°02' E 001°15'0 0.2
2017-Sep-13 21:00N 06°02' E 001°15'0 0.0
2017-Sep-13 20:15N 06°02' E 001°15'0 0.0
2017-Sep-13 19:57N 06°02' E 001°15'0 0.0
2017-Sep-12 23:03N 06°02' E 001°15'0 0.1
2017-Sep-12 22:51N 06°02' E 001°15'0 0.0
2017-Sep-12 22:30N 06°02' E 001°15'  

Dump ship's entire track history